sensor_id;sensor_type;location;lat;lon;timestamp;temperature;humidity
23495;DHT22;26107;50.832;2.950;2023-07-31T00:02:42;17.20;99.90
23495;DHT22;26107;50.832;2.950;2023-07-31T00:17:45;17.20;99.90
23495;DHT22;26107;50.832;2.950;2023-07-31T00:32:45;17.30;99.90
23495;DHT22;26107;50.832;2.950;2023-07-31T00:47:46;17.40;99.90
23495;DHT22;26107;50.832;2.950;2023-07-31T01:02:47;17.20;99.90
23495;DHT22;26107;50.832;2.950;2023-07-31T01:17:47;17.50;99.90
23495;DHT22;26107;50.832;2.950;2023-07-31T01:32:50;17.70;99.90
23495;DHT22;26107;50.832;2.950;2023-07-31T01:47:53;17.60;99.90
23495;DHT22;26107;50.832;2.950;2023-07-31T02:02:53;17.70;99.90
23495;DHT22;26107;50.832;2.950;2023-07-31T02:17:54;17.80;99.90
23495;DHT22;26107;50.832;2.950;2023-07-31T02:32:54;17.50;99.90
23495;DHT22;26107;50.832;2.950;2023-07-31T02:47:55;17.50;99.90
23495;DHT22;26107;50.832;2.950;2023-07-31T03:02:55;17.30;99.90
23495;DHT22;26107;50.832;2.950;2023-07-31T03:17:56;17.60;99.90
23495;DHT22;26107;50.832;2.950;2023-07-31T03:32:56;17.50;99.90
23495;DHT22;26107;50.832;2.950;2023-07-31T03:47:59;17.20;99.90
23495;DHT22;26107;50.832;2.950;2023-07-31T04:03:00;17.10;99.90
23495;DHT22;26107;50.832;2.950;2023-07-31T04:18:02;17.30;99.90
23495;DHT22;26107;50.832;2.950;2023-07-31T04:33:03;17.30;99.90
23495;DHT22;26107;50.832;2.950;2023-07-31T04:48:04;17.10;99.90
23495;DHT22;26107;50.832;2.950;2023-07-31T05:03:04;17.10;99.90
23495;DHT22;26107;50.832;2.950;2023-07-31T05:18:05;16.90;99.90
23495;DHT22;26107;50.832;2.950;2023-07-31T05:33:05;17.00;99.90
23495;DHT22;26107;50.832;2.950;2023-07-31T05:48:06;17.10;99.90
23495;DHT22;26107;50.832;2.950;2023-07-31T06:03:06;17.10;99.90
23495;DHT22;26107;50.832;2.950;2023-07-31T06:18:07;17.30;99.90
23495;DHT22;26107;50.832;2.950;2023-07-31T06:33:08;17.20;99.90
23495;DHT22;26107;50.832;2.950;2023-07-31T06:48:09;17.40;99.90
23495;DHT22;26107;50.832;2.950;2023-07-31T07:03:10;17.30;99.90
23495;DHT22;26107;50.832;2.950;2023-07-31T07:18:10;17.10;99.90
23495;DHT22;26107;50.832;2.950;2023-07-31T07:33:11;17.10;99.90
23495;DHT22;26107;50.832;2.950;2023-07-31T07:48:12;17.30;99.90
23495;DHT22;26107;50.832;2.950;2023-07-31T08:03:13;17.30;99.90
23495;DHT22;26107;50.832;2.950;2023-07-31T08:18:17;17.50;99.90
23495;DHT22;26107;50.832;2.950;2023-07-31T08:33:17;17.60;99.90
23495;DHT22;26107;50.832;2.950;2023-07-31T08:48:19;17.70;99.90
23495;DHT22;26107;50.832;2.950;2023-07-31T09:03:23;17.70;99.90
23495;DHT22;26107;50.832;2.950;2023-07-31T09:18:24;17.70;99.90
23495;DHT22;26107;50.832;2.950;2023-07-31T09:33:27;18.10;99.90
23495;DHT22;26107;50.832;2.950;2023-07-31T09:48:27;18.10;99.90
23495;DHT22;26107;50.832;2.950;2023-07-31T10:03:28;18.20;99.90
23495;DHT22;26107;50.832;2.950;2023-07-31T10:18:29;18.60;99.90
23495;DHT22;26107;50.832;2.950;2023-07-31T10:33:32;18.80;99.90
23495;DHT22;26107;50.832;2.950;2023-07-31T10:48:33;19.00;99.90
23495;DHT22;26107;50.832;2.950;2023-07-31T11:03:45;19.10;99.90
23495;DHT22;26107;50.832;2.950;2023-07-31T11:18:49;19.10;99.90
23495;DHT22;26107;50.832;2.950;2023-07-31T11:34:03;19.40;99.90
23495;DHT22;26107;50.832;2.950;2023-07-31T11:49:04;19.50;99.90
23495;DHT22;26107;50.832;2.950;2023-07-31T12:04:07;19.30;99.90
23495;DHT22;26107;50.832;2.950;2023-07-31T12:19:07;18.60;99.90
23495;DHT22;26107;50.832;2.950;2023-07-31T12:34:15;18.20;99.90
23495;DHT22;26107;50.832;2.950;2023-07-31T12:49:15;18.40;99.90
23495;DHT22;26107;50.832;2.950;2023-07-31T13:04:16;18.60;99.90
23495;DHT22;26107;50.832;2.950;2023-07-31T13:19:16;18.70;99.90
23495;DHT22;26107;50.832;2.950;2023-07-31T13:34:17;18.40;99.90
23495;DHT22;26107;50.832;2.950;2023-07-31T13:49:17;18.40;99.90
23495;DHT22;26107;50.832;2.950;2023-07-31T14:04:18;18.50;99.90
23495;DHT22;26107;50.832;2.950;2023-07-31T14:19:19;18.50;99.90
23495;DHT22;26107;50.832;2.950;2023-07-31T14:34:20;18.50;99.90
23495;DHT22;26107;50.832;2.950;2023-07-31T14:49:23;18.50;99.90
23495;DHT22;26107;50.832;2.950;2023-07-31T15:04:27;18.30;99.90
23495;DHT22;26107;50.832;2.950;2023-07-31T15:19:30;18.40;99.90
23495;DHT22;26107;50.832;2.950;2023-07-31T15:34:34;18.50;99.90
23495;DHT22;26107;50.832;2.950;2023-07-31T15:49:38;18.70;99.90
23495;DHT22;26107;50.832;2.950;2023-07-31T16:04:39;18.80;99.90
23495;DHT22;26107;50.832;2.950;2023-07-31T16:19:40;18.90;99.90
23495;DHT22;26107;50.832;2.950;2023-07-31T16:34:43;18.80;99.90
23495;DHT22;26107;50.832;2.950;2023-07-31T16:49:43;18.60;99.90
23495;DHT22;26107;50.832;2.950;2023-07-31T17:04:44;18.90;99.90
23495;DHT22;26107;50.832;2.950;2023-07-31T17:19:44;19.20;99.90
23495;DHT22;26107;50.832;2.950;2023-07-31T17:34:45;18.70;99.90
23495;DHT22;26107;50.832;2.950;2023-07-31T17:49:47;18.60;99.90
23495;DHT22;26107;50.832;2.950;2023-07-31T18:04:47;18.60;99.90
23495;DHT22;26107;50.832;2.950;2023-07-31T18:19:48;18.60;99.90
23495;DHT22;26107;50.832;2.950;2023-07-31T18:34:48;18.60;99.90
23495;DHT22;26107;50.832;2.950;2023-07-31T18:49:49;18.40;99.90
23495;DHT22;26107;50.832;2.950;2023-07-31T19:04:49;18.40;99.90
23495;DHT22;26107;50.832;2.950;2023-07-31T19:19:50;18.00;99.90
23495;DHT22;26107;50.832;2.950;2023-07-31T19:34:50;18.30;99.90
23495;DHT22;26107;50.832;2.950;2023-07-31T19:49:51;18.00;99.90
23495;DHT22;26107;50.832;2.950;2023-07-31T20:04:51;18.10;99.90
23495;DHT22;26107;50.832;2.950;2023-07-31T20:19:52;17.60;99.90
23495;DHT22;26107;50.832;2.950;2023-07-31T20:34:52;17.60;99.90
23495;DHT22;26107;50.832;2.950;2023-07-31T20:49:53;17.60;99.90
23495;DHT22;26107;50.832;2.950;2023-07-31T21:04:53;17.50;99.90
23495;DHT22;26107;50.832;2.950;2023-07-31T21:19:54;17.50;99.90
23495;DHT22;26107;50.832;2.950;2023-07-31T21:34:57;17.20;99.90
23495;DHT22;26107;50.832;2.950;2023-07-31T21:49:57;17.20;99.90
23495;DHT22;26107;50.832;2.950;2023-07-31T22:04:58;17.10;99.90
23495;DHT22;26107;50.832;2.950;2023-07-31T22:20:03;16.90;99.90
23495;DHT22;26107;50.832;2.950;2023-07-31T22:35:04;16.80;99.90
23495;DHT22;26107;50.832;2.950;2023-07-31T22:50:05;16.80;99.90
23495;DHT22;26107;50.832;2.950;2023-07-31T23:05:08;16.80;99.90
23495;DHT22;26107;50.832;2.950;2023-07-31T23:20:09;16.50;99.90
23495;DHT22;26107;50.832;2.950;2023-07-31T23:35:10;16.50;99.90
23495;DHT22;26107;50.832;2.950;2023-07-31T23:50:11;16.30;99.90
